sensor_id;sensor_type;location;lat;lon;timestamp;P1;durP1;ratioP1;P2;durP2;ratioP2
1436;SDS011;712;51.026;13.792;2022-09-01T00:00:59;6.00;;;5.50;;
1436;SDS011;712;51.026;13.792;2022-09-01T00:03:24;6.00;;;5.50;;
1436;SDS011;712;51.026;13.792;2022-09-01T00:05:49;6.40;;;5.80;;
1436;SDS011;712;51.026;13.792;2022-09-01T00:08:19;6.72;;;6.10;;
1436;SDS011;712;51.026;13.792;2022-09-01T00:10:44;7.20;;;5.90;;
1436;SDS011;712;51.026;13.792;2022-09-01T00:13:10;5.90;;;5.30;;
1436;SDS011;712;51.026;13.792;2022-09-01T00:15:35;6.67;;;5.50;;
1436;SDS011;712;51.026;13.792;2022-09-01T00:18:00;8.20;;;5.60;;
1436;SDS011;712;51.026;13.792;2022-09-01T00:20:26;5.70;;;5.20;;
1436;SDS011;712;51.026;13.792;2022-09-01T00:22:51;5.85;;;5.25;;
1436;SDS011;712;51.026;13.792;2022-09-01T00:25:17;5.70;;;5.20;;
1436;SDS011;712;51.026;13.792;2022-09-01T00:27:44;5.75;;;5.25;;
1436;SDS011;712;51.026;13.792;2022-09-01T00:30:09;6.50;;;5.80;;
1436;SDS011;712;51.026;13.792;2022-09-01T00:32:34;6.03;;;5.20;;
1436;SDS011;712;51.026;13.792;2022-09-01T00:34:59;6.20;;;5.60;;
1436;SDS011;712;51.026;13.792;2022-09-01T00:37:24;6.00;;;5.40;;
1436;SDS011;712;51.026;13.792;2022-09-01T00:39:50;6.40;;;5.80;;
1436;SDS011;712;51.026;13.792;2022-09-01T00:42:15;6.00;;;5.50;;
1436;SDS011;712;51.026;13.792;2022-09-01T00:44:40;6.53;;;5.93;;
1436;SDS011;712;51.026;13.792;2022-09-01T00:47:05;6.00;;;5.40;;
1436;SDS011;712;51.026;13.792;2022-09-01T00:51:59;5.93;;;5.33;;
1436;SDS011;712;51.026;13.792;2022-09-01T00:54:26;5.40;;;5.00;;
1436;SDS011;712;51.026;13.792;2022-09-01T00:56:53;6.55;;;5.50;;
1436;SDS011;712;51.026;13.792;2022-09-01T00:59:19;6.05;;;5.50;;
1436;SDS011;712;51.026;13.792;2022-09-01T01:01:44;6.63;;;5.60;;
1436;SDS011;712;51.026;13.792;2022-09-01T01:04:09;5.88;;;5.28;;
1436;SDS011;712;51.026;13.792;2022-09-01T01:06:38;6.03;;;5.40;;
1436;SDS011;712;51.026;13.792;2022-09-01T01:09:04;5.70;;;5.20;;
1436;SDS011;712;51.026;13.792;2022-09-01T01:11:30;5.88;;;5.30;;
1436;SDS011;712;51.026;13.792;2022-09-01T01:14:00;5.70;;;5.20;;
1436;SDS011;712;51.026;13.792;2022-09-01T01:16:34;5.72;;;5.22;;
1436;SDS011;712;51.026;13.792;2022-09-01T01:18:59;5.67;;;5.17;;
1436;SDS011;712;51.026;13.792;2022-09-01T01:21:28;5.80;;;5.30;;
1436;SDS011;712;51.026;13.792;2022-09-01T01:24:20;5.80;;;5.20;;
1436;SDS011;712;51.026;13.792;2022-09-01T01:26:46;6.20;;;5.70;;
1436;SDS011;712;51.026;13.792;2022-09-01T01:29:11;5.55;;;5.15;;
1436;SDS011;712;51.026;13.792;2022-09-01T01:31:36;6.20;;;5.70;;
1436;SDS011;712;51.026;13.792;2022-09-01T01:34:02;5.80;;;5.30;;
1436;SDS011;712;51.026;13.792;2022-09-01T01:36:31;6.22;;;5.10;;
1436;SDS011;712;51.026;13.792;2022-09-01T01:39:01;6.20;;;5.60;;
1436;SDS011;712;51.026;13.792;2022-09-01T01:41:29;5.70;;;5.20;;
1436;SDS011;712;51.026;13.792;2022-09-01T01:43:56;5.60;;;5.15;;
1436;SDS011;712;51.026;13.792;2022-09-01T01:46:22;6.10;;;5.60;;
1436;SDS011;712;51.026;13.792;2022-09-01T01:48:49;5.20;;;4.80;;
1436;SDS011;712;51.026;13.792;2022-09-01T01:51:16;5.43;;;5.00;;
1436;SDS011;712;51.026;13.792;2022-09-01T01:53:44;5.30;;;4.90;;
1436;SDS011;712;51.026;13.792;2022-09-01T01:56:09;5.73;;;5.23;;
1436;SDS011;712;51.026;13.792;2022-09-01T01:58:35;6.03;;;5.10;;
1436;SDS011;712;51.026;13.792;2022-09-01T02:01:00;5.80;;;5.30;;
1436;SDS011;712;51.026;13.792;2022-09-01T02:03:26;5.60;;;5.20;;
1436;SDS011;712;51.026;13.792;2022-09-01T02:05:53;5.50;;;4.80;;
1436;SDS011;712;51.026;13.792;2022-09-01T02:08:19;5.63;;;5.13;;
1436;SDS011;712;51.026;13.792;2022-09-01T02:10:46;5.70;;;5.20;;
1436;SDS011;712;51.026;13.792;2022-09-01T02:13:12;5.40;;;5.00;;
1436;SDS011;712;51.026;13.792;2022-09-01T02:15:41;6.00;;;5.50;;
1436;SDS011;712;51.026;13.792;2022-09-01T02:20:53;5.60;;;5.20;;
1436;SDS011;712;51.026;13.792;2022-09-01T02:23:19;6.00;;;5.40;;
1436;SDS011;712;51.026;13.792;2022-09-01T02:25:47;5.90;;;5.32;;
1436;SDS011;712;51.026;13.792;2022-09-01T02:28:14;6.00;;;5.47;;
1436;SDS011;712;51.026;13.792;2022-09-01T02:30:40;5.78;;;5.28;;
1436;SDS011;712;51.026;13.792;2022-09-01T02:33:06;5.72;;;5.18;;
1436;SDS011;712;51.026;13.792;2022-09-01T02:35:33;6.32;;;5.82;;
1436;SDS011;712;51.026;13.792;2022-09-01T02:37:58;5.70;;;5.30;;
1436;SDS011;712;51.026;13.792;2022-09-01T02:40:25;6.13;;;5.63;;
1436;SDS011;712;51.026;13.792;2022-09-01T02:42:50;6.00;;;5.50;;
1436;SDS011;712;51.026;13.792;2022-09-01T02:45:19;5.75;;;5.35;;
1436;SDS011;712;51.026;13.792;2022-09-01T02:47:44;5.80;;;5.30;;
1436;SDS011;712;51.026;13.792;2022-09-01T02:50:10;5.43;;;5.03;;
1436;SDS011;712;51.026;13.792;2022-09-01T02:52:41;6.22;;;5.82;;
1436;SDS011;712;51.026;13.792;2022-09-01T02:55:07;5.90;;;5.40;;
1436;SDS011;712;51.026;13.792;2022-09-01T02:57:32;5.25;;;4.85;;
1436;SDS011;712;51.026;13.792;2022-09-01T02:59:59;5.60;;;5.20;;
1436;SDS011;712;51.026;13.792;2022-09-01T03:02:24;5.40;;;5.00;;
1436;SDS011;712;51.026;13.792;2022-09-01T03:04:52;5.78;;;5.28;;
1436;SDS011;712;51.026;13.792;2022-09-01T03:07:19;6.25;;;5.68;;
1436;SDS011;712;51.026;13.792;2022-09-01T03:09:45;5.20;;;4.80;;
1436;SDS011;712;51.026;13.792;2022-09-01T03:12:10;5.63;;;5.22;;
1436;SDS011;712;51.026;13.792;2022-09-01T03:14:36;5.30;;;4.90;;
1436;SDS011;712;51.026;13.792;2022-09-01T03:17:01;6.00;;;5.40;;
1436;SDS011;712;51.026;13.792;2022-09-01T03:19:26;5.90;;;5.50;;
1436;SDS011;712;51.026;13.792;2022-09-01T03:21:51;6.03;;;5.43;;
1436;SDS011;712;51.026;13.792;2022-09-01T03:24:16;5.90;;;5.40;;
1436;SDS011;712;51.026;13.792;2022-09-01T03:26:42;5.80;;;5.40;;
1436;SDS011;712;51.026;13.792;2022-09-01T03:29:07;5.80;;;5.40;;
1436;SDS011;712;51.026;13.792;2022-09-01T03:31:33;5.80;;;5.30;;
1436;SDS011;712;51.026;13.792;2022-09-01T03:33:58;4.83;;;4.53;;
1436;SDS011;712;51.026;13.792;2022-09-01T03:36:25;6.00;;;5.50;;
1436;SDS011;712;51.026;13.792;2022-09-01T03:38:51;6.28;;;5.68;;
1436;SDS011;712;51.026;13.792;2022-09-01T03:41:17;5.83;;;5.43;;
1436;SDS011;712;51.026;13.792;2022-09-01T03:43:43;5.90;;;5.40;;
1436;SDS011;712;51.026;13.792;2022-09-01T03:46:09;5.72;;;5.30;;
1436;SDS011;712;51.026;13.792;2022-09-01T03:48:40;6.00;;;5.50;;
1436;SDS011;712;51.026;13.792;2022-09-01T03:51:06;5.57;;;5.10;;
1436;SDS011;712;51.026;13.792;2022-09-01T03:53:34;5.32;;;4.82;;
1436;SDS011;712;51.026;13.792;2022-09-01T03:56:02;5.68;;;5.28;;
1436;SDS011;712;51.026;13.792;2022-09-01T03:58:28;5.15;;;4.75;;
1436;SDS011;712;51.026;13.792;2022-09-01T04:00:54;6.40;;;5.80;;
1436;SDS011;712;51.026;13.792;2022-09-01T04:03:21;5.22;;;4.72;;
1436;SDS011;712;51.026;13.792;2022-09-01T04:05:47;6.00;;;5.50;;
1436;SDS011;712;51.026;13.792;2022-09-01T04:08:12;5.70;;;5.20;;
1436;SDS011;712;51.026;13.792;2022-09-01T04:10:56;5.03;;;4.63;;
1436;SDS011;712;51.026;13.792;2022-09-01T04:13:26;5.72;;;5.32;;
1436;SDS011;712;51.026;13.792;2022-09-01T04:15:51;5.72;;;5.22;;
1436;SDS011;712;51.026;13.792;2022-09-01T04:18:17;5.63;;;5.23;;
1436;SDS011;712;51.026;13.792;2022-09-01T04:20:46;5.07;;;4.68;;
1436;SDS011;712;51.026;13.792;2022-09-01T04:23:22;4.97;;;4.57;;
1436;SDS011;712;51.026;13.792;2022-09-01T04:25:51;5.13;;;4.63;;
1436;SDS011;712;51.026;13.792;2022-09-01T04:28:17;5.90;;;5.30;;
1436;SDS011;712;51.026;13.792;2022-09-01T04:30:49;5.60;;;5.10;;
1436;SDS011;712;51.026;13.792;2022-09-01T04:33:15;5.65;;;5.20;;
1436;SDS011;712;51.026;13.792;2022-09-01T04:35:41;5.72;;;5.32;;
1436;SDS011;712;51.026;13.792;2022-09-01T04:38:06;6.07;;;5.57;;
1436;SDS011;712;51.026;13.792;2022-09-01T04:40:32;7.20;;;5.65;;
1436;SDS011;712;51.026;13.792;2022-09-01T04:42:58;5.13;;;4.72;;
1436;SDS011;712;51.026;13.792;2022-09-01T04:45:23;5.10;;;4.70;;
1436;SDS011;712;51.026;13.792;2022-09-01T04:47:51;5.65;;;5.15;;
1436;SDS011;712;51.026;13.792;2022-09-01T04:50:17;6.20;;;5.60;;
1436;SDS011;712;51.026;13.792;2022-09-01T04:52:43;5.90;;;5.50;;
1436;SDS011;712;51.026;13.792;2022-09-01T04:55:11;5.80;;;5.32;;
1436;SDS011;712;51.026;13.792;2022-09-01T04:57:44;6.13;;;5.73;;
1436;SDS011;712;51.026;13.792;2022-09-01T05:00:11;5.77;;;5.37;;
1436;SDS011;712;51.026;13.792;2022-09-01T05:02:46;5.90;;;5.50;;
1436;SDS011;712;51.026;13.792;2022-09-01T05:05:11;6.50;;;6.00;;
1436;SDS011;712;51.026;13.792;2022-09-01T05:07:36;6.00;;;5.50;;
1436;SDS011;712;51.026;13.792;2022-09-01T05:10:01;6.33;;;5.83;;
1436;SDS011;712;51.026;13.792;2022-09-01T05:12:27;5.40;;;5.00;;
1436;SDS011;712;51.026;13.792;2022-09-01T05:14:53;5.90;;;5.30;;
1436;SDS011;712;51.026;13.792;2022-09-01T05:17:19;6.18;;;5.40;;
1436;SDS011;712;51.026;13.792;2022-09-01T05:19:46;6.50;;;6.00;;
1436;SDS011;712;51.026;13.792;2022-09-01T05:22:11;6.00;;;5.38;;
1436;SDS011;712;51.026;13.792;2022-09-01T05:24:37;5.60;;;5.10;;
1436;SDS011;712;51.026;13.792;2022-09-01T05:27:05;6.30;;;5.70;;
1436;SDS011;712;51.026;13.792;2022-09-01T05:29:31;6.88;;;6.30;;
1436;SDS011;712;51.026;13.792;2022-09-01T05:31:56;6.83;;;6.20;;
1436;SDS011;712;51.026;13.792;2022-09-01T05:34:23;6.70;;;5.90;;
1436;SDS011;712;51.026;13.792;2022-09-01T05:36:52;5.90;;;5.40;;
1436;SDS011;712;51.026;13.792;2022-09-01T05:39:18;5.80;;;5.30;;
1436;SDS011;712;51.026;13.792;2022-09-01T05:41:44;6.80;;;5.57;;
1436;SDS011;712;51.026;13.792;2022-09-01T05:44:10;6.10;;;5.60;;
1436;SDS011;712;51.026;13.792;2022-09-01T05:46:36;6.03;;;5.60;;
1436;SDS011;712;51.026;13.792;2022-09-01T05:49:01;5.68;;;5.18;;
1436;SDS011;712;51.026;13.792;2022-09-01T05:51:27;6.80;;;6.20;;
1436;SDS011;712;51.026;13.792;2022-09-01T05:53:54;6.35;;;5.85;;
1436;SDS011;712;51.026;13.792;2022-09-01T05:56:23;5.90;;;5.40;;
1436;SDS011;712;51.026;13.792;2022-09-01T05:58:48;5.80;;;5.40;;
1436;SDS011;712;51.026;13.792;2022-09-01T06:01:21;5.97;;;5.47;;
1436;SDS011;712;51.026;13.792;2022-09-01T06:03:52;6.78;;;6.18;;
1436;SDS011;712;51.026;13.792;2022-09-01T06:06:18;5.90;;;5.40;;
1436;SDS011;712;51.026;13.792;2022-09-01T06:08:45;6.00;;;5.60;;
1436;SDS011;712;51.026;13.792;2022-09-01T06:11:13;5.90;;;5.40;;
1436;SDS011;712;51.026;13.792;2022-09-01T06:13:38;6.80;;;6.20;;
1436;SDS011;712;51.026;13.792;2022-09-01T06:16:06;6.80;;;6.30;;
1436;SDS011;712;51.026;13.792;2022-09-01T06:18:32;7.35;;;6.60;;
1436;SDS011;712;51.026;13.792;2022-09-01T06:20:58;6.83;;;6.33;;
1436;SDS011;712;51.026;13.792;2022-09-01T06:23:23;6.20;;;5.80;;
1436;SDS011;712;51.026;13.792;2022-09-01T06:25:48;6.47;;;5.80;;
1436;SDS011;712;51.026;13.792;2022-09-01T06:28:17;6.88;;;6.22;;
1436;SDS011;712;51.026;13.792;2022-09-01T06:30:46;6.60;;;6.10;;
1436;SDS011;712;51.026;13.792;2022-09-01T06:33:12;6.88;;;6.35;;
1436;SDS011;712;51.026;13.792;2022-09-01T06:35:38;6.77;;;6.27;;
1436;SDS011;712;51.026;13.792;2022-09-01T06:38:05;6.20;;;5.80;;
1436;SDS011;712;51.026;13.792;2022-09-01T06:40:31;6.80;;;6.30;;
1436;SDS011;712;51.026;13.792;2022-09-01T06:42:56;7.87;;;7.17;;
1436;SDS011;712;51.026;13.792;2022-09-01T06:45:23;7.20;;;6.60;;
1436;SDS011;712;51.026;13.792;2022-09-01T06:47:49;7.70;;;6.30;;
1436;SDS011;712;51.026;13.792;2022-09-01T06:50:17;7.53;;;6.10;;
1436;SDS011;712;51.026;13.792;2022-09-01T06:52:49;6.80;;;6.20;;
1436;SDS011;712;51.026;13.792;2022-09-01T06:55:25;7.00;;;6.50;;
1436;SDS011;712;51.026;13.792;2022-09-01T06:57:51;7.00;;;5.97;;
1436;SDS011;712;51.026;13.792;2022-09-01T07:00:18;6.03;;;5.53;;
1436;SDS011;712;51.026;13.792;2022-09-01T07:02:51;6.18;;;5.65;;
1436;SDS011;712;51.026;13.792;2022-09-01T07:05:17;6.75;;;6.25;;
1436;SDS011;712;51.026;13.792;2022-09-01T07:07:48;7.25;;;6.35;;
1436;SDS011;712;51.026;13.792;2022-09-01T07:10:15;6.20;;;5.60;;
1436;SDS011;712;51.026;13.792;2022-09-01T07:12:40;6.80;;;6.20;;
1436;SDS011;712;51.026;13.792;2022-09-01T07:15:10;7.13;;;6.53;;
1436;SDS011;712;51.026;13.792;2022-09-01T07:17:37;6.43;;;5.93;;
1436;SDS011;712;51.026;13.792;2022-09-01T07:20:05;6.30;;;5.80;;
1436;SDS011;712;51.026;13.792;2022-09-01T07:22:31;6.85;;;6.30;;
1436;SDS011;712;51.026;13.792;2022-09-01T07:24:56;6.27;;;5.60;;
1436;SDS011;712;51.026;13.792;2022-09-01T07:27:22;6.10;;;5.57;;
1436;SDS011;712;51.026;13.792;2022-09-01T07:29:52;7.67;;;6.87;;
1436;SDS011;712;51.026;13.792;2022-09-01T07:32:18;5.80;;;5.30;;
1436;SDS011;712;51.026;13.792;2022-09-01T07:34:44;5.72;;;5.20;;
1436;SDS011;712;51.026;13.792;2022-09-01T07:37:10;5.80;;;5.38;;
1436;SDS011;712;51.026;13.792;2022-09-01T07:39:35;5.50;;;5.10;;
1436;SDS011;712;51.026;13.792;2022-09-01T07:42:00;6.80;;;6.10;;
1436;SDS011;712;51.026;13.792;2022-09-01T07:44:33;6.97;;;6.32;;
1436;SDS011;712;51.026;13.792;2022-09-01T07:46:58;6.83;;;6.23;;
1436;SDS011;712;51.026;13.792;2022-09-01T07:49:23;6.20;;;5.70;;
1436;SDS011;712;51.026;13.792;2022-09-01T07:51:49;6.35;;;5.75;;
1436;SDS011;712;51.026;13.792;2022-09-01T07:54:15;6.47;;;5.80;;
1436;SDS011;712;51.026;13.792;2022-09-01T07:56:41;6.53;;;5.93;;
1436;SDS011;712;51.026;13.792;2022-09-01T07:59:06;6.37;;;5.73;;
1436;SDS011;712;51.026;13.792;2022-09-01T08:01:33;7.10;;;6.40;;
1436;SDS011;712;51.026;13.792;2022-09-01T08:03:59;6.10;;;5.60;;
1436;SDS011;712;51.026;13.792;2022-09-01T08:06:26;6.50;;;5.90;;
1436;SDS011;712;51.026;13.792;2022-09-01T08:08:53;6.55;;;5.60;;
1436;SDS011;712;51.026;13.792;2022-09-01T08:11:19;6.85;;;6.25;;
1436;SDS011;712;51.026;13.792;2022-09-01T08:13:46;6.43;;;5.80;;
1436;SDS011;712;51.026;13.792;2022-09-01T08:16:12;6.00;;;5.40;;
1436;SDS011;712;51.026;13.792;2022-09-01T08:18:37;5.78;;;5.10;;
1436;SDS011;712;51.026;13.792;2022-09-01T08:21:05;7.30;;;6.60;;
1436;SDS011;712;51.026;13.792;2022-09-01T08:23:30;6.07;;;4.90;;
1436;SDS011;712;51.026;13.792;2022-09-01T08:25:55;6.70;;;5.65;;
1436;SDS011;712;51.026;13.792;2022-09-01T08:28:20;6.03;;;5.53;;
1436;SDS011;712;51.026;13.792;2022-09-01T08:30:45;6.03;;;5.40;;
1436;SDS011;712;51.026;13.792;2022-09-01T08:33:12;4.85;;;4.10;;
1436;SDS011;712;51.026;13.792;2022-09-01T08:35:41;4.93;;;4.53;;
1436;SDS011;712;51.026;13.792;2022-09-01T08:38:08;4.10;;;3.80;;
1436;SDS011;712;51.026;13.792;2022-09-01T08:40:34;4.20;;;3.80;;
1436;SDS011;712;51.026;13.792;2022-09-01T08:48:30;4.72;;;4.32;;
1436;SDS011;712;51.026;13.792;2022-09-01T08:51:06;5.32;;;4.80;;
1436;SDS011;712;51.026;13.792;2022-09-01T08:53:45;4.27;;;3.87;;
1436;SDS011;712;51.026;13.792;2022-09-01T08:56:11;5.00;;;4.03;;
1436;SDS011;712;51.026;13.792;2022-09-01T08:58:37;4.47;;;4.07;;
1436;SDS011;712;51.026;13.792;2022-09-01T09:01:03;4.40;;;4.00;;
1436;SDS011;712;51.026;13.792;2022-09-01T09:06:12;4.93;;;4.00;;
1436;SDS011;712;51.026;13.792;2022-09-01T09:08:47;4.35;;;4.05;;
1436;SDS011;712;51.026;13.792;2022-09-01T09:16:29;3.65;;;3.35;;
1436;SDS011;712;51.026;13.792;2022-09-01T09:21:27;6.13;;;4.00;;
1436;SDS011;712;51.026;13.792;2022-09-01T09:23:55;3.20;;;3.00;;
1436;SDS011;712;51.026;13.792;2022-09-01T09:26:22;3.60;;;3.30;;
1436;SDS011;712;51.026;13.792;2022-09-01T09:28:47;3.83;;;3.53;;
1436;SDS011;712;51.026;13.792;2022-09-01T09:33:58;4.40;;;3.60;;
1436;SDS011;712;51.026;13.792;2022-09-01T09:39:02;3.40;;;3.10;;
1436;SDS011;712;51.026;13.792;2022-09-01T09:41:27;3.00;;;2.80;;
1436;SDS011;712;51.026;13.792;2022-09-01T09:48:48;3.20;;;2.90;;
1436;SDS011;712;51.026;13.792;2022-09-01T09:51:16;3.60;;;3.20;;
1436;SDS011;712;51.026;13.792;2022-09-01T09:53:41;2.92;;;2.72;;
1436;SDS011;712;51.026;13.792;2022-09-01T09:56:17;3.38;;;3.03;;
1436;SDS011;712;51.026;13.792;2022-09-01T09:58:43;3.40;;;3.00;;
1436;SDS011;712;51.026;13.792;2022-09-01T10:01:11;2.83;;;2.63;;
1436;SDS011;712;51.026;13.792;2022-09-01T10:06:08;3.28;;;2.85;;
1436;SDS011;712;51.026;13.792;2022-09-01T10:08:42;4.20;;;3.30;;
1436;SDS011;712;51.026;13.792;2022-09-01T10:11:23;3.13;;;2.83;;
1436;SDS011;712;51.026;13.792;2022-09-01T10:13:50;3.10;;;2.80;;
1436;SDS011;712;51.026;13.792;2022-09-01T10:16:18;3.10;;;2.80;;
1436;SDS011;712;51.026;13.792;2022-09-01T10:18:47;3.58;;;2.60;;
1436;SDS011;712;51.026;13.792;2022-09-01T10:21:14;2.90;;;2.70;;
1436;SDS011;712;51.026;13.792;2022-09-01T10:23:40;3.10;;;2.80;;
1436;SDS011;712;51.026;13.792;2022-09-01T10:26:10;3.10;;;2.80;;
1436;SDS011;712;51.026;13.792;2022-09-01T10:28:41;3.40;;;2.85;;
1436;SDS011;712;51.026;13.792;2022-09-01T10:31:07;3.63;;;3.00;;
1436;SDS011;712;51.026;13.792;2022-09-01T10:33:33;4.35;;;3.15;;
1436;SDS011;712;51.026;13.792;2022-09-01T10:35:59;3.17;;;2.90;;
1436;SDS011;712;51.026;13.792;2022-09-01T10:38:25;2.80;;;2.60;;
1436;SDS011;712;51.026;13.792;2022-09-01T10:40:51;3.30;;;2.90;;
1436;SDS011;712;51.026;13.792;2022-09-01T10:46:00;2.90;;;2.60;;
1436;SDS011;712;51.026;13.792;2022-09-01T10:48:32;2.38;;;2.17;;
1436;SDS011;712;51.026;13.792;2022-09-01T10:53:40;3.60;;;2.90;;
1436;SDS011;712;51.026;13.792;2022-09-01T10:56:19;2.60;;;2.40;;
1436;SDS011;712;51.026;13.792;2022-09-01T10:58:58;2.47;;;2.28;;
1436;SDS011;712;51.026;13.792;2022-09-01T11:04:12;2.60;;;2.40;;
1436;SDS011;712;51.026;13.792;2022-09-01T11:09:06;2.20;;;2.00;;
1436;SDS011;712;51.026;13.792;2022-09-01T11:11:50;2.72;;;2.53;;
1436;SDS011;712;51.026;13.792;2022-09-01T11:14:20;2.90;;;2.30;;
1436;SDS011;712;51.026;13.792;2022-09-01T11:19:40;2.00;;;1.80;;
1436;SDS011;712;51.026;13.792;2022-09-01T11:22:12;1.85;;;1.75;;
1436;SDS011;712;51.026;13.792;2022-09-01T11:27:03;1.90;;;1.70;;
1436;SDS011;712;51.026;13.792;2022-09-01T11:32:13;2.50;;;2.30;;
1436;SDS011;712;51.026;13.792;2022-09-01T11:34:41;4.50;;;2.00;;
1436;SDS011;712;51.026;13.792;2022-09-01T11:37:11;2.70;;;2.10;;
1436;SDS011;712;51.026;13.792;2022-09-01T11:39:40;4.60;;;2.30;;
1436;SDS011;712;51.026;13.792;2022-09-01T11:42:16;3.28;;;2.20;;
1436;SDS011;712;51.026;13.792;2022-09-01T11:44:58;2.40;;;2.20;;
1436;SDS011;712;51.026;13.792;2022-09-01T11:47:33;4.57;;;2.30;;
1436;SDS011;712;51.026;13.792;2022-09-01T11:50:04;4.03;;;2.80;;
1436;SDS011;712;51.026;13.792;2022-09-01T11:52:31;3.80;;;2.60;;
1436;SDS011;712;51.026;13.792;2022-09-01T11:54:58;3.07;;;2.60;;
1436;SDS011;712;51.026;13.792;2022-09-01T11:59:52;2.10;;;1.90;;
1436;SDS011;712;51.026;13.792;2022-09-01T12:02:22;3.10;;;2.80;;
1436;SDS011;712;51.026;13.792;2022-09-01T12:04:49;3.05;;;2.60;;
1436;SDS011;712;51.026;13.792;2022-09-01T12:07:29;2.67;;;2.47;;
1436;SDS011;712;51.026;13.792;2022-09-01T12:09:56;3.00;;;2.50;;
1436;SDS011;712;51.026;13.792;2022-09-01T12:12:32;4.88;;;2.67;;
1436;SDS011;712;51.026;13.792;2022-09-01T12:15:03;3.15;;;2.50;;
1436;SDS011;712;51.026;13.792;2022-09-01T12:17:31;2.58;;;2.00;;
1436;SDS011;712;51.026;13.792;2022-09-01T12:20:14;3.57;;;2.40;;
1436;SDS011;712;51.026;13.792;2022-09-01T12:22:41;2.75;;;2.10;;
1436;SDS011;712;51.026;13.792;2022-09-01T12:25:06;2.05;;;1.85;;
1436;SDS011;712;51.026;13.792;2022-09-01T12:27:41;3.00;;;2.50;;
1436;SDS011;712;51.026;13.792;2022-09-01T12:30:06;2.60;;;2.40;;
1436;SDS011;712;51.026;13.792;2022-09-01T12:32:32;2.23;;;2.03;;
1436;SDS011;712;51.026;13.792;2022-09-01T12:35:14;2.80;;;2.33;;
1436;SDS011;712;51.026;13.792;2022-09-01T12:37:41;2.33;;;2.15;;
1436;SDS011;712;51.026;13.792;2022-09-01T12:40:16;2.00;;;1.80;;
1436;SDS011;712;51.026;13.792;2022-09-01T12:42:48;2.13;;;1.90;;
1436;SDS011;712;51.026;13.792;2022-09-01T12:45:14;1.95;;;1.85;;
1436;SDS011;712;51.026;13.792;2022-09-01T12:47:59;2.70;;;2.03;;
1436;SDS011;712;51.026;13.792;2022-09-01T12:52:59;1.75;;;1.65;;
1436;SDS011;712;51.026;13.792;2022-09-01T12:57:51;1.50;;;1.40;;
1436;SDS011;712;51.026;13.792;2022-09-01T13:00:21;1.70;;;1.60;;
1436;SDS011;712;51.026;13.792;2022-09-01T13:05:20;1.70;;;1.60;;
1436;SDS011;712;51.026;13.792;2022-09-01T13:07:46;1.60;;;1.50;;
1436;SDS011;712;51.026;13.792;2022-09-01T13:10:11;1.60;;;1.50;;
1436;SDS011;712;51.026;13.792;2022-09-01T13:12:40;1.40;;;1.30;;
1436;SDS011;712;51.026;13.792;2022-09-01T13:15:06;1.67;;;1.58;;
1436;SDS011;712;51.026;13.792;2022-09-01T13:17:31;1.70;;;1.60;;
1436;SDS011;712;51.026;13.792;2022-09-01T13:19:56;2.60;;;1.60;;
1436;SDS011;712;51.026;13.792;2022-09-01T13:22:21;1.40;;;1.30;;
1436;SDS011;712;51.026;13.792;2022-09-01T13:24:46;2.27;;;1.90;;
1436;SDS011;712;51.026;13.792;2022-09-01T13:27:12;1.88;;;1.70;;
1436;SDS011;712;51.026;13.792;2022-09-01T13:29:39;2.33;;;1.90;;
1436;SDS011;712;51.026;13.792;2022-09-01T13:32:04;2.50;;;1.80;;
1436;SDS011;712;51.026;13.792;2022-09-01T13:34:30;1.70;;;1.60;;
1436;SDS011;712;51.026;13.792;2022-09-01T13:36:56;2.00;;;1.80;;
1436;SDS011;712;51.026;13.792;2022-09-01T13:39:21;2.70;;;1.90;;
1436;SDS011;712;51.026;13.792;2022-09-01T13:41:46;2.35;;;1.83;;
1436;SDS011;712;51.026;13.792;2022-09-01T13:44:12;2.00;;;1.90;;
1436;SDS011;712;51.026;13.792;2022-09-01T13:46:37;3.10;;;2.20;;
1436;SDS011;712;51.026;13.792;2022-09-01T13:49:02;1.87;;;1.70;;
1436;SDS011;712;51.026;13.792;2022-09-01T13:51:27;2.20;;;2.00;;
1436;SDS011;712;51.026;13.792;2022-09-01T13:53:53;2.55;;;2.25;;
1436;SDS011;712;51.026;13.792;2022-09-01T13:56:18;3.00;;;1.70;;
1436;SDS011;712;51.026;13.792;2022-09-01T13:58:43;2.42;;;1.90;;
1436;SDS011;712;51.026;13.792;2022-09-01T14:01:09;1.97;;;1.60;;
1436;SDS011;712;51.026;13.792;2022-09-01T14:03:35;3.10;;;1.70;;
1436;SDS011;712;51.026;13.792;2022-09-01T14:06:01;1.80;;;1.70;;
1436;SDS011;712;51.026;13.792;2022-09-01T14:08:26;1.80;;;1.70;;
1436;SDS011;712;51.026;13.792;2022-09-01T14:10:51;2.38;;;1.65;;
1436;SDS011;712;51.026;13.792;2022-09-01T14:13:18;1.70;;;1.60;;
1436;SDS011;712;51.026;13.792;2022-09-01T14:15:43;3.10;;;1.80;;
1436;SDS011;712;51.026;13.792;2022-09-01T14:18:09;2.70;;;1.60;;
1436;SDS011;712;51.026;13.792;2022-09-01T14:20:36;2.00;;;1.60;;
1436;SDS011;712;51.026;13.792;2022-09-01T14:23:03;2.25;;;1.45;;
1436;SDS011;712;51.026;13.792;2022-09-01T14:25:30;1.67;;;1.58;;
1436;SDS011;712;51.026;13.792;2022-09-01T14:27:55;1.80;;;1.70;;
1436;SDS011;712;51.026;13.792;2022-09-01T14:30:22;1.80;;;1.60;;
1436;SDS011;712;51.026;13.792;2022-09-01T14:32:48;1.90;;;1.80;;
1436;SDS011;712;51.026;13.792;2022-09-01T14:35:14;1.75;;;1.60;;
1436;SDS011;712;51.026;13.792;2022-09-01T14:37:40;2.08;;;1.85;;
1436;SDS011;712;51.026;13.792;2022-09-01T14:40:07;1.90;;;1.80;;
1436;SDS011;712;51.026;13.792;2022-09-01T14:42:33;1.90;;;1.80;;
1436;SDS011;712;51.026;13.792;2022-09-01T14:44:58;1.50;;;1.40;;
1436;SDS011;712;51.026;13.792;2022-09-01T14:47:24;1.83;;;1.73;;
1436;SDS011;712;51.026;13.792;2022-09-01T14:49:50;1.70;;;1.50;;
1436;SDS011;712;51.026;13.792;2022-09-01T14:52:15;1.77;;;1.60;;
1436;SDS011;712;51.026;13.792;2022-09-01T14:54:42;2.00;;;1.90;;
1436;SDS011;712;51.026;13.792;2022-09-01T14:57:08;1.70;;;1.60;;
1436;SDS011;712;51.026;13.792;2022-09-01T14:59:33;2.00;;;1.60;;
1436;SDS011;712;51.026;13.792;2022-09-01T15:01:59;1.70;;;1.60;;
1436;SDS011;712;51.026;13.792;2022-09-01T15:04:24;1.70;;;1.60;;
1436;SDS011;712;51.026;13.792;2022-09-01T15:06:50;3.87;;;1.60;;
1436;SDS011;712;51.026;13.792;2022-09-01T15:09:15;1.70;;;1.60;;
1436;SDS011;712;51.026;13.792;2022-09-01T15:11:40;2.50;;;1.80;;
1436;SDS011;712;51.026;13.792;2022-09-01T15:14:05;1.60;;;1.50;;
1436;SDS011;712;51.026;13.792;2022-09-01T15:16:33;1.70;;;1.60;;
1436;SDS011;712;51.026;13.792;2022-09-01T15:19:03;1.70;;;1.60;;
1436;SDS011;712;51.026;13.792;2022-09-01T15:21:29;1.80;;;1.60;;
1436;SDS011;712;51.026;13.792;2022-09-01T15:23:57;1.70;;;1.60;;
1436;SDS011;712;51.026;13.792;2022-09-01T15:26:23;1.50;;;1.40;;
1436;SDS011;712;51.026;13.792;2022-09-01T15:28:49;1.70;;;1.60;;
1436;SDS011;712;51.026;13.792;2022-09-01T15:31:15;1.80;;;1.40;;
1436;SDS011;712;51.026;13.792;2022-09-01T15:33:41;2.80;;;2.00;;
1436;SDS011;712;51.026;13.792;2022-09-01T15:36:07;1.90;;;1.80;;
1436;SDS011;712;51.026;13.792;2022-09-01T15:38:32;1.95;;;1.50;;
1436;SDS011;712;51.026;13.792;2022-09-01T15:40:57;1.80;;;1.60;;
1436;SDS011;712;51.026;13.792;2022-09-01T15:43:24;2.07;;;1.67;;
1436;SDS011;712;51.026;13.792;2022-09-01T15:45:49;1.70;;;1.60;;
1436;SDS011;712;51.026;13.792;2022-09-01T15:48:14;1.70;;;1.60;;
1436;SDS011;712;51.026;13.792;2022-09-01T15:50:40;1.70;;;1.60;;
1436;SDS011;712;51.026;13.792;2022-09-01T15:53:06;2.20;;;1.90;;
1436;SDS011;712;51.026;13.792;2022-09-01T15:55:45;1.70;;;1.60;;
1436;SDS011;712;51.026;13.792;2022-09-01T15:58:11;1.70;;;1.50;;
1436;SDS011;712;51.026;13.792;2022-09-01T16:00:37;1.70;;;1.60;;
1436;SDS011;712;51.026;13.792;2022-09-01T16:03:02;1.57;;;1.40;;
1436;SDS011;712;51.026;13.792;2022-09-01T16:05:31;1.70;;;1.40;;
1436;SDS011;712;51.026;13.792;2022-09-01T16:07:57;1.60;;;1.50;;
1436;SDS011;712;51.026;13.792;2022-09-01T16:10:25;1.80;;;1.50;;
1436;SDS011;712;51.026;13.792;2022-09-01T16:12:50;1.48;;;1.38;;
1436;SDS011;712;51.026;13.792;2022-09-01T16:15:17;1.45;;;1.35;;
1436;SDS011;712;51.026;13.792;2022-09-01T16:20:48;1.92;;;1.60;;